sensor_id;sensor_type;location;lat;lon;timestamp;P1;durP1;ratioP1;P2;durP2;ratioP2
21624;SDS011;10974;51.034;3.744;2023-01-28T04:18:25;7.80;;;7.00;;
21624;SDS011;10974;51.034;3.744;2023-01-28T04:20:51;7.20;;;6.50;;
21624;SDS011;10974;51.034;3.744;2023-01-28T04:23:17;8.43;;;6.93;;
21624;SDS011;10974;51.034;3.744;2023-01-28T04:25:43;8.40;;;7.60;;
21624;SDS011;10974;51.034;3.744;2023-01-28T04:28:09;8.33;;;7.53;;
21624;SDS011;10974;51.034;3.744;2023-01-28T04:30:35;9.00;;;8.10;;
21624;SDS011;10974;51.034;3.744;2023-01-28T04:33:01;8.47;;;7.67;;
21624;SDS011;10974;51.034;3.744;2023-01-28T04:35:27;7.50;;;6.80;;
21624;SDS011;10974;51.034;3.744;2023-01-28T04:37:53;9.03;;;8.00;;
21624;SDS011;10974;51.034;3.744;2023-01-28T04:40:19;8.23;;;7.43;;
21624;SDS011;10974;51.034;3.744;2023-01-28T04:42:51;8.40;;;7.57;;
21624;SDS011;10974;51.034;3.744;2023-01-28T04:45:17;7.97;;;7.17;;
21624;SDS011;10974;51.034;3.744;2023-01-28T04:47:43;8.43;;;7.40;;
21624;SDS011;10974;51.034;3.744;2023-01-28T04:50:09;8.37;;;7.33;;
21624;SDS011;10974;51.034;3.744;2023-01-28T04:52:35;9.70;;;8.07;;
21624;SDS011;10974;51.034;3.744;2023-01-28T04:55:01;8.70;;;7.80;;
21624;SDS011;10974;51.034;3.744;2023-01-28T04:57:28;8.13;;;7.33;;
21624;SDS011;10974;51.034;3.744;2023-01-28T04:59:54;8.47;;;7.53;;
21624;SDS011;10974;51.034;3.744;2023-01-28T05:02:20;8.50;;;7.63;;
21624;SDS011;10974;51.034;3.744;2023-01-28T05:04:46;8.73;;;7.50;;
21624;SDS011;10974;51.034;3.744;2023-01-28T05:07:12;8.63;;;7.80;;
21624;SDS011;10974;51.034;3.744;2023-01-28T05:09:38;8.07;;;7.27;;
21624;SDS011;10974;51.034;3.744;2023-01-28T05:12:04;8.73;;;7.90;;
21624;SDS011;10974;51.034;3.744;2023-01-28T05:14:30;8.03;;;7.13;;
21624;SDS011;10974;51.034;3.744;2023-01-28T05:16:56;8.40;;;7.37;;
21624;SDS011;10974;51.034;3.744;2023-01-28T05:19:22;8.90;;;7.33;;
21624;SDS011;10974;51.034;3.744;2023-01-28T05:21:48;7.67;;;6.87;;
21624;SDS011;10974;51.034;3.744;2023-01-28T05:24:14;7.73;;;6.93;;
21624;SDS011;10974;51.034;3.744;2023-01-28T05:26:40;10.60;;;7.47;;
21624;SDS011;10974;51.034;3.744;2023-01-28T05:29:07;8.77;;;7.97;;
21624;SDS011;10974;51.034;3.744;2023-01-28T05:31:33;8.87;;;7.07;;
21624;SDS011;10974;51.034;3.744;2023-01-28T05:33:59;8.03;;;7.23;;
21624;SDS011;10974;51.034;3.744;2023-01-28T05:36:25;8.23;;;7.30;;
21624;SDS011;10974;51.034;3.744;2023-01-28T05:38:51;7.20;;;6.50;;
21624;SDS011;10974;51.034;3.744;2023-01-28T05:41:17;7.57;;;6.63;;
21624;SDS011;10974;51.034;3.744;2023-01-28T05:43:43;7.97;;;7.17;;
21624;SDS011;10974;51.034;3.744;2023-01-28T05:46:09;8.10;;;7.30;;
21624;SDS011;10974;51.034;3.744;2023-01-28T05:48:35;8.57;;;7.67;;
21624;SDS011;10974;51.034;3.744;2023-01-28T05:51:01;8.70;;;7.80;;
21624;SDS011;10974;51.034;3.744;2023-01-28T05:53:29;9.10;;;8.20;;
21624;SDS011;10974;51.034;3.744;2023-01-28T05:55:55;7.73;;;7.00;;
21624;SDS011;10974;51.034;3.744;2023-01-28T05:58:21;8.60;;;7.70;;
21624;SDS011;10974;51.034;3.744;2023-01-28T06:00:47;8.17;;;7.37;;
21624;SDS011;10974;51.034;3.744;2023-01-28T06:03:13;8.33;;;7.37;;
21624;SDS011;10974;51.034;3.744;2023-01-28T06:05:39;9.00;;;8.00;;
21624;SDS011;10974;51.034;3.744;2023-01-28T06:08:05;8.97;;;7.80;;
21624;SDS011;10974;51.034;3.744;2023-01-28T06:10:31;9.90;;;8.33;;
21624;SDS011;10974;51.034;3.744;2023-01-28T06:12:58;8.23;;;7.43;;
21624;SDS011;10974;51.034;3.744;2023-01-28T06:15:24;9.10;;;8.10;;
21624;SDS011;10974;51.034;3.744;2023-01-28T06:17:50;9.23;;;7.97;;
21624;SDS011;10974;51.034;3.744;2023-01-28T06:20:16;8.70;;;7.80;;
21624;SDS011;10974;51.034;3.744;2023-01-28T06:22:43;9.50;;;7.53;;
21624;SDS011;10974;51.034;3.744;2023-01-28T06:25:09;8.93;;;7.87;;
21624;SDS011;10974;51.034;3.744;2023-01-28T06:27:35;10.57;;;8.07;;
21624;SDS011;10974;51.034;3.744;2023-01-28T06:30:01;10.07;;;8.30;;
21624;SDS011;10974;51.034;3.744;2023-01-28T06:32:27;10.43;;;8.20;;
21624;SDS011;10974;51.034;3.744;2023-01-28T06:34:53;9.20;;;8.23;;
21624;SDS011;10974;51.034;3.744;2023-01-28T06:37:21;11.47;;;8.50;;
21624;SDS011;10974;51.034;3.744;2023-01-28T06:39:47;10.70;;;8.43;;
21624;SDS011;10974;51.034;3.744;2023-01-28T06:42:13;11.13;;;8.83;;
21624;SDS011;10974;51.034;3.744;2023-01-28T06:44:39;8.97;;;7.53;;
21624;SDS011;10974;51.034;3.744;2023-01-28T06:47:05;12.93;;;8.87;;
21624;SDS011;10974;51.034;3.744;2023-01-28T06:49:31;11.70;;;8.50;;
21624;SDS011;10974;51.034;3.744;2023-01-28T06:51:57;10.53;;;8.87;;
21624;SDS011;10974;51.034;3.744;2023-01-28T06:54:23;10.20;;;8.87;;
21624;SDS011;10974;51.034;3.744;2023-01-28T06:56:49;9.13;;;8.17;;
21624;SDS011;10974;51.034;3.744;2023-01-28T06:59:15;10.60;;;8.73;;
21624;SDS011;10974;51.034;3.744;2023-01-28T07:01:41;9.80;;;8.40;;
21624;SDS011;10974;51.034;3.744;2023-01-28T07:04:07;10.60;;;8.63;;
21624;SDS011;10974;51.034;3.744;2023-01-28T07:06:36;9.63;;;8.60;;
21624;SDS011;10974;51.034;3.744;2023-01-28T07:09:02;11.67;;;9.50;;
21624;SDS011;10974;51.034;3.744;2023-01-28T07:11:28;11.70;;;8.50;;
21624;SDS011;10974;51.034;3.744;2023-01-28T07:13:54;9.07;;;8.07;;
21624;SDS011;10974;51.034;3.744;2023-01-28T07:16:23;10.70;;;9.60;;
21624;SDS011;10974;51.034;3.744;2023-01-28T07:18:49;10.43;;;9.10;;
21624;SDS011;10974;51.034;3.744;2023-01-28T07:21:15;10.20;;;8.53;;
21624;SDS011;10974;51.034;3.744;2023-01-28T07:23:41;11.10;;;9.10;;
21624;SDS011;10974;51.034;3.744;2023-01-28T07:26:08;11.53;;;8.17;;
21624;SDS011;10974;51.034;3.744;2023-01-28T07:28:34;11.43;;;9.70;;
21624;SDS011;10974;51.034;3.744;2023-01-28T07:31:00;11.80;;;9.93;;
21624;SDS011;10974;51.034;3.744;2023-01-28T07:33:26;12.67;;;9.50;;
21624;SDS011;10974;51.034;3.744;2023-01-28T07:35:52;16.63;;;10.40;;
21624;SDS011;10974;51.034;3.744;2023-01-28T07:38:18;14.70;;;10.20;;
21624;SDS011;10974;51.034;3.744;2023-01-28T07:40:45;12.00;;;9.60;;
21624;SDS011;10974;51.034;3.744;2023-01-28T07:43:11;11.40;;;9.90;;
21624;SDS011;10974;51.034;3.744;2023-01-28T07:45:37;13.27;;;10.43;;
21624;SDS011;10974;51.034;3.744;2023-01-28T07:48:04;17.57;;;10.57;;
21624;SDS011;10974;51.034;3.744;2023-01-28T07:50:31;12.10;;;10.27;;
21624;SDS011;10974;51.034;3.744;2023-01-28T07:52:58;12.07;;;10.73;;
21624;SDS011;10974;51.034;3.744;2023-01-28T07:55:24;13.50;;;10.73;;
21624;SDS011;10974;51.034;3.744;2023-01-28T07:57:51;12.50;;;11.20;;
21624;SDS011;10974;51.034;3.744;2023-01-28T08:00:18;12.83;;;11.43;;
21624;SDS011;10974;51.034;3.744;2023-01-28T08:02:44;12.40;;;11.10;;
21624;SDS011;10974;51.034;3.744;2023-01-28T08:05:21;13.07;;;10.43;;
21624;SDS011;10974;51.034;3.744;2023-01-28T08:07:47;13.30;;;11.27;;
21624;SDS011;10974;51.034;3.744;2023-01-28T08:10:14;15.40;;;11.03;;
21624;SDS011;10974;51.034;3.744;2023-01-28T08:12:49;11.47;;;10.17;;
21624;SDS011;10974;51.034;3.744;2023-01-28T08:15:15;11.97;;;10.77;;
21624;SDS011;10974;51.034;3.744;2023-01-28T08:17:41;12.20;;;10.87;;
21624;SDS011;10974;51.034;3.744;2023-01-28T08:20:07;11.83;;;10.53;;
21624;SDS011;10974;51.034;3.744;2023-01-28T08:22:33;15.03;;;11.10;;
21624;SDS011;10974;51.034;3.744;2023-01-28T08:24:59;13.80;;;11.20;;
21624;SDS011;10974;51.034;3.744;2023-01-28T08:27:26;13.07;;;11.40;;
21624;SDS011;10974;51.034;3.744;2023-01-28T08:29:52;12.23;;;10.30;;
21624;SDS011;10974;51.034;3.744;2023-01-28T08:32:18;13.10;;;11.37;;
21624;SDS011;10974;51.034;3.744;2023-01-28T08:34:44;13.93;;;10.93;;
21624;SDS011;10974;51.034;3.744;2023-01-28T08:37:10;14.27;;;11.63;;
21624;SDS011;10974;51.034;3.744;2023-01-28T08:39:36;14.73;;;11.80;;
21624;SDS011;10974;51.034;3.744;2023-01-28T08:42:02;13.13;;;10.93;;
21624;SDS011;10974;51.034;3.744;2023-01-28T08:44:29;16.83;;;11.73;;
21624;SDS011;10974;51.034;3.744;2023-01-28T08:46:55;13.50;;;11.53;;
21624;SDS011;10974;51.034;3.744;2023-01-28T08:49:21;12.17;;;10.90;;
21624;SDS011;10974;51.034;3.744;2023-01-28T08:51:47;12.03;;;10.47;;
21624;SDS011;10974;51.034;3.744;2023-01-28T08:54:13;12.77;;;10.77;;
21624;SDS011;10974;51.034;3.744;2023-01-28T08:56:39;11.90;;;10.23;;
21624;SDS011;10974;51.034;3.744;2023-01-28T08:59:09;14.70;;;11.77;;
21624;SDS011;10974;51.034;3.744;2023-01-28T09:01:35;13.83;;;11.23;;
21624;SDS011;10974;51.034;3.744;2023-01-28T09:04:01;15.60;;;10.80;;
21624;SDS011;10974;51.034;3.744;2023-01-28T09:06:28;13.10;;;10.97;;
21624;SDS011;10974;51.034;3.744;2023-01-28T09:08:57;11.77;;;9.43;;
21624;SDS011;10974;51.034;3.744;2023-01-28T09:11:24;9.87;;;8.70;;
21624;SDS011;10974;51.034;3.744;2023-01-28T09:13:50;10.93;;;8.77;;
21624;SDS011;10974;51.034;3.744;2023-01-28T09:16:16;9.90;;;8.90;;
21624;SDS011;10974;51.034;3.744;2023-01-28T09:18:42;9.60;;;8.57;;
21624;SDS011;10974;51.034;3.744;2023-01-28T09:21:08;10.90;;;8.80;;
21624;SDS011;10974;51.034;3.744;2023-01-28T09:23:37;10.43;;;8.90;;
21624;SDS011;10974;51.034;3.744;2023-01-28T09:26:04;8.67;;;7.53;;
21624;SDS011;10974;51.034;3.744;2023-01-28T09:28:30;11.17;;;8.63;;
21624;SDS011;10974;51.034;3.744;2023-01-28T09:31:00;9.87;;;7.13;;
21624;SDS011;10974;51.034;3.744;2023-01-28T09:33:26;9.10;;;7.60;;
21624;SDS011;10974;51.034;3.744;2023-01-28T09:35:52;8.40;;;7.60;;
21624;SDS011;10974;51.034;3.744;2023-01-28T09:38:18;8.70;;;7.80;;
21624;SDS011;10974;51.034;3.744;2023-01-28T09:40:45;10.53;;;7.43;;
21624;SDS011;10974;51.034;3.744;2023-01-28T09:45:41;8.40;;;6.87;;
21624;SDS011;10974;51.034;3.744;2023-01-28T09:48:11;9.23;;;7.47;;
21624;SDS011;10974;51.034;3.744;2023-01-28T09:50:39;6.93;;;6.10;;
21624;SDS011;10974;51.034;3.744;2023-01-28T09:56:05;8.20;;;6.63;;
21624;SDS011;10974;51.034;3.744;2023-01-28T09:58:32;8.43;;;6.23;;
21624;SDS011;10974;51.034;3.744;2023-01-28T10:13:42;6.90;;;6.13;;
21624;SDS011;10974;51.034;3.744;2023-01-28T10:16:15;7.37;;;6.30;;
21624;SDS011;10974;51.034;3.744;2023-01-28T10:18:45;7.53;;;6.80;;
21624;SDS011;10974;51.034;3.744;2023-01-28T10:21:15;9.90;;;7.30;;
21624;SDS011;10974;51.034;3.744;2023-01-28T10:26:24;8.97;;;7.57;;
21624;SDS011;10974;51.034;3.744;2023-01-28T10:28:55;10.53;;;7.70;;
21624;SDS011;10974;51.034;3.744;2023-01-28T10:31:22;8.70;;;7.30;;
21624;SDS011;10974;51.034;3.744;2023-01-28T10:33:48;9.60;;;8.20;;
21624;SDS011;10974;51.034;3.744;2023-01-28T10:36:14;11.33;;;8.73;;
21624;SDS011;10974;51.034;3.744;2023-01-28T10:38:42;10.30;;;8.33;;
21624;SDS011;10974;51.034;3.744;2023-01-28T10:41:08;12.33;;;9.40;;
21624;SDS011;10974;51.034;3.744;2023-01-28T10:43:37;13.60;;;10.30;;
21624;SDS011;10974;51.034;3.744;2023-01-28T10:46:05;13.97;;;10.27;;
21624;SDS011;10974;51.034;3.744;2023-01-28T10:48:33;11.87;;;9.60;;
21624;SDS011;10974;51.034;3.744;2023-01-28T10:51:02;11.50;;;9.90;;
21624;SDS011;10974;51.034;3.744;2023-01-28T10:56:09;12.83;;;10.20;;
21624;SDS011;10974;51.034;3.744;2023-01-28T10:58:44;13.93;;;10.37;;
21624;SDS011;10974;51.034;3.744;2023-01-28T11:01:12;12.60;;;9.47;;
21624;SDS011;10974;51.034;3.744;2023-01-28T11:03:38;11.97;;;10.30;;
21624;SDS011;10974;51.034;3.744;2023-01-28T11:06:05;12.33;;;10.17;;
21624;SDS011;10974;51.034;3.744;2023-01-28T11:08:41;13.23;;;9.97;;
21624;SDS011;10974;51.034;3.744;2023-01-28T11:11:12;13.27;;;10.40;;
21624;SDS011;10974;51.034;3.744;2023-01-28T11:13:47;11.63;;;9.70;;
21624;SDS011;10974;51.034;3.744;2023-01-28T11:16:17;13.03;;;9.97;;
21624;SDS011;10974;51.034;3.744;2023-01-28T11:18:50;12.90;;;10.10;;
21624;SDS011;10974;51.034;3.744;2023-01-28T11:21:18;12.13;;;10.20;;
21624;SDS011;10974;51.034;3.744;2023-01-28T11:23:49;11.60;;;9.53;;
21624;SDS011;10974;51.034;3.744;2023-01-28T11:26:20;13.10;;;9.87;;
21624;SDS011;10974;51.034;3.744;2023-01-28T11:28:47;13.47;;;10.40;;
21624;SDS011;10974;51.034;3.744;2023-01-28T11:31:14;12.53;;;9.70;;
21624;SDS011;10974;51.034;3.744;2023-01-28T11:36:20;11.80;;;10.13;;
21624;SDS011;10974;51.034;3.744;2023-01-28T11:38:47;13.17;;;10.27;;
21624;SDS011;10974;51.034;3.744;2023-01-28T11:41:14;12.40;;;10.03;;
21624;SDS011;10974;51.034;3.744;2023-01-28T11:43:40;12.53;;;10.10;;
21624;SDS011;10974;51.034;3.744;2023-01-28T11:53:50;11.30;;;9.43;;
21624;SDS011;10974;51.034;3.744;2023-01-28T11:56:23;12.37;;;9.97;;
21624;SDS011;10974;51.034;3.744;2023-01-28T12:09:07;12.07;;;10.67;;
21624;SDS011;10974;51.034;3.744;2023-01-28T12:14:25;9.73;;;8.40;;
21624;SDS011;10974;51.034;3.744;2023-01-28T12:27:25;9.00;;;7.63;;
21624;SDS011;10974;51.034;3.744;2023-01-28T12:39:44;12.83;;;8.13;;
21624;SDS011;10974;51.034;3.744;2023-01-28T12:44:42;8.53;;;7.10;;
21624;SDS011;10974;51.034;3.744;2023-01-28T12:47:09;9.20;;;7.20;;
21624;SDS011;10974;51.034;3.744;2023-01-28T12:49:38;9.60;;;7.27;;
21624;SDS011;10974;51.034;3.744;2023-01-28T12:52:16;9.27;;;6.80;;
21624;SDS011;10974;51.034;3.744;2023-01-28T12:54:51;10.13;;;6.87;;
21624;SDS011;10974;51.034;3.744;2023-01-28T12:57:22;9.20;;;6.43;;
21624;SDS011;10974;51.034;3.744;2023-01-28T12:59:49;9.73;;;6.90;;
21624;SDS011;10974;51.034;3.744;2023-01-28T13:02:20;8.83;;;6.10;;
21624;SDS011;10974;51.034;3.744;2023-01-28T13:07:23;8.70;;;6.50;;
21624;SDS011;10974;51.034;3.744;2023-01-28T13:09:53;7.50;;;6.30;;
21624;SDS011;10974;51.034;3.744;2023-01-28T13:12:23;7.63;;;6.03;;
21624;SDS011;10974;51.034;3.744;2023-01-28T13:14:49;7.93;;;6.37;;
21624;SDS011;10974;51.034;3.744;2023-01-28T13:19:51;10.03;;;6.70;;
21624;SDS011;10974;51.034;3.744;2023-01-28T13:22:31;8.53;;;6.50;;
21624;SDS011;10974;51.034;3.744;2023-01-28T13:25:11;7.07;;;6.20;;
21624;SDS011;10974;51.034;3.744;2023-01-28T13:27:38;9.00;;;6.77;;
21624;SDS011;10974;51.034;3.744;2023-01-28T13:30:18;7.30;;;6.33;;
21624;SDS011;10974;51.034;3.744;2023-01-28T13:32:53;8.30;;;6.30;;
21624;SDS011;10974;51.034;3.744;2023-01-28T13:35:28;9.60;;;6.90;;
21624;SDS011;10974;51.034;3.744;2023-01-28T13:37:55;12.67;;;7.70;;
21624;SDS011;10974;51.034;3.744;2023-01-28T13:40:25;10.67;;;6.67;;
21624;SDS011;10974;51.034;3.744;2023-01-28T13:42:59;9.10;;;6.73;;
21624;SDS011;10974;51.034;3.744;2023-01-28T13:45:26;8.20;;;6.80;;
21624;SDS011;10974;51.034;3.744;2023-01-28T13:47:58;8.70;;;6.93;;
21624;SDS011;10974;51.034;3.744;2023-01-28T13:50:31;7.63;;;6.20;;
21624;SDS011;10974;51.034;3.744;2023-01-28T13:53:01;8.93;;;6.70;;
21624;SDS011;10974;51.034;3.744;2023-01-28T13:55:35;7.30;;;5.43;;
21624;SDS011;10974;51.034;3.744;2023-01-28T14:11:14;4.17;;;3.77;;
21624;SDS011;10974;51.034;3.744;2023-01-28T14:14:03;6.93;;;3.83;;
21624;SDS011;10974;51.034;3.744;2023-01-28T14:16:52;6.70;;;4.10;;
21624;SDS011;10974;51.034;3.744;2023-01-28T14:19:25;4.70;;;2.53;;
21624;SDS011;10974;51.034;3.744;2023-01-28T14:21:51;2.57;;;2.37;;
21624;SDS011;10974;51.034;3.744;2023-01-28T14:24:18;3.70;;;2.60;;
21624;SDS011;10974;51.034;3.744;2023-01-28T14:32:25;4.73;;;3.47;;
21624;SDS011;10974;51.034;3.744;2023-01-28T14:34:53;6.20;;;3.53;;
21624;SDS011;10974;51.034;3.744;2023-01-28T14:37:21;5.03;;;4.20;;
21624;SDS011;10974;51.034;3.744;2023-01-28T14:39:56;6.03;;;4.67;;
21624;SDS011;10974;51.034;3.744;2023-01-28T14:42:23;9.27;;;4.90;;
21624;SDS011;10974;51.034;3.744;2023-01-28T14:44:55;4.50;;;4.10;;
21624;SDS011;10974;51.034;3.744;2023-01-28T14:55:19;5.47;;;4.10;;
21624;SDS011;10974;51.034;3.744;2023-01-28T14:57:52;5.20;;;4.27;;
21624;SDS011;10974;51.034;3.744;2023-01-28T15:00:20;3.73;;;3.30;;
21624;SDS011;10974;51.034;3.744;2023-01-28T15:02:47;6.90;;;4.30;;
21624;SDS011;10974;51.034;3.744;2023-01-28T15:05:15;4.30;;;3.37;;
21624;SDS011;10974;51.034;3.744;2023-01-28T15:07:45;5.10;;;3.63;;
21624;SDS011;10974;51.034;3.744;2023-01-28T15:10:17;3.83;;;3.43;;
21624;SDS011;10974;51.034;3.744;2023-01-28T15:12:45;4.87;;;3.33;;
21624;SDS011;10974;51.034;3.744;2023-01-28T15:17:41;6.73;;;3.50;;
21624;SDS011;10974;51.034;3.744;2023-01-28T15:20:08;9.43;;;3.33;;
21624;SDS011;10974;51.034;3.744;2023-01-28T15:22:34;3.80;;;3.27;;
21624;SDS011;10974;51.034;3.744;2023-01-28T15:25:00;8.20;;;3.80;;
21624;SDS011;10974;51.034;3.744;2023-01-28T15:27:27;93.03;;;6.23;;
21624;SDS011;10974;51.034;3.744;2023-01-28T15:29:55;6.00;;;4.60;;
21624;SDS011;10974;51.034;3.744;2023-01-28T15:32:26;8.00;;;5.47;;
21624;SDS011;10974;51.034;3.744;2023-01-28T15:34:53;4.00;;;3.60;;
21624;SDS011;10974;51.034;3.744;2023-01-28T15:37:19;4.93;;;4.40;;
21624;SDS011;10974;51.034;3.744;2023-01-28T15:39:45;4.97;;;4.20;;
21624;SDS011;10974;51.034;3.744;2023-01-28T15:42:22;52.83;;;6.43;;
21624;SDS011;10974;51.034;3.744;2023-01-28T15:44:53;7.73;;;4.20;;
21624;SDS011;10974;51.034;3.744;2023-01-28T15:47:31;6.17;;;3.70;;
21624;SDS011;10974;51.034;3.744;2023-01-28T15:50:00;4.23;;;3.80;;
21624;SDS011;10974;51.034;3.744;2023-01-28T15:52:44;5.30;;;3.73;;
21624;SDS011;10974;51.034;3.744;2023-01-28T15:55:26;5.40;;;4.47;;
21624;SDS011;10974;51.034;3.744;2023-01-28T15:57:53;6.60;;;4.40;;
21624;SDS011;10974;51.034;3.744;2023-01-28T16:00:20;5.83;;;4.20;;
21624;SDS011;10974;51.034;3.744;2023-01-28T16:02:47;7.73;;;4.40;;
21624;SDS011;10974;51.034;3.744;2023-01-28T16:05:33;8.33;;;5.10;;
21624;SDS011;10974;51.034;3.744;2023-01-28T16:08:11;5.80;;;4.20;;
21624;SDS011;10974;51.034;3.744;2023-01-28T16:10:39;3.93;;;3.53;;
21624;SDS011;10974;51.034;3.744;2023-01-28T16:13:11;4.67;;;4.10;;
21624;SDS011;10974;51.034;3.744;2023-01-28T16:15:43;6.07;;;3.80;;
21624;SDS011;10974;51.034;3.744;2023-01-28T16:18:53;7.93;;;4.13;;
21624;SDS011;10974;51.034;3.744;2023-01-28T16:20:59;7.50;;;4.53;;
21624;SDS011;10974;51.034;3.744;2023-01-28T16:23:26;5.43;;;4.13;;
21624;SDS011;10974;51.034;3.744;2023-01-28T16:28:25;8.17;;;5.00;;
21624;SDS011;10974;51.034;3.744;2023-01-28T16:30:53;5.70;;;4.30;;
21624;SDS011;10974;51.034;3.744;2023-01-28T16:33:20;13.27;;;4.87;;
21624;SDS011;10974;51.034;3.744;2023-01-28T16:35:46;8.33;;;4.70;;
21624;SDS011;10974;51.034;3.744;2023-01-28T16:38:12;8.13;;;4.13;;
21624;SDS011;10974;51.034;3.744;2023-01-28T16:40:41;6.93;;;4.03;;
21624;SDS011;10974;51.034;3.744;2023-01-28T16:43:10;7.00;;;4.00;;
21624;SDS011;10974;51.034;3.744;2023-01-28T16:45:37;5.83;;;4.20;;
21624;SDS011;10974;51.034;3.744;2023-01-28T16:48:03;6.70;;;4.70;;
21624;SDS011;10974;51.034;3.744;2023-01-28T16:50:30;11.23;;;4.13;;
21624;SDS011;10974;51.034;3.744;2023-01-28T16:52:57;5.57;;;4.60;;
21624;SDS011;10974;51.034;3.744;2023-01-28T16:55:23;15.00;;;4.33;;
21624;SDS011;10974;51.034;3.744;2023-01-28T16:57:53;7.73;;;4.57;;
21624;SDS011;10974;51.034;3.744;2023-01-28T17:00:21;13.43;;;5.40;;
21624;SDS011;10974;51.034;3.744;2023-01-28T17:02:48;9.03;;;5.00;;
21624;SDS011;10974;51.034;3.744;2023-01-28T17:05:14;7.30;;;5.50;;
21624;SDS011;10974;51.034;3.744;2023-01-28T17:07:41;9.77;;;5.00;;
21624;SDS011;10974;51.034;3.744;2023-01-28T17:10:07;9.67;;;5.47;;
21624;SDS011;10974;51.034;3.744;2023-01-28T17:12:34;9.60;;;5.07;;
21624;SDS011;10974;51.034;3.744;2023-01-28T17:15:00;18.90;;;6.93;;
21624;SDS011;10974;51.034;3.744;2023-01-28T17:17:27;16.47;;;6.67;;
21624;SDS011;10974;51.034;3.744;2023-01-28T17:19:54;9.10;;;5.60;;
21624;SDS011;10974;51.034;3.744;2023-01-28T17:22:20;9.37;;;6.13;;
21624;SDS011;10974;51.034;3.744;2023-01-28T17:24:46;15.70;;;5.43;;
21624;SDS011;10974;51.034;3.744;2023-01-28T17:27:12;12.07;;;5.40;;
21624;SDS011;10974;51.034;3.744;2023-01-28T17:29:38;11.03;;;5.97;;
21624;SDS011;10974;51.034;3.744;2023-01-28T17:32:04;8.40;;;5.77;;
21624;SDS011;10974;51.034;3.744;2023-01-28T17:34:30;7.23;;;6.00;;
21624;SDS011;10974;51.034;3.744;2023-01-28T17:36:56;10.23;;;5.87;;
21624;SDS011;10974;51.034;3.744;2023-01-28T17:39:22;10.87;;;6.10;;
21624;SDS011;10974;51.034;3.744;2023-01-28T17:41:48;12.03;;;6.00;;
21624;SDS011;10974;51.034;3.744;2023-01-28T17:44:16;7.43;;;5.57;;
21624;SDS011;10974;51.034;3.744;2023-01-28T17:46:43;11.83;;;5.90;;
21624;SDS011;10974;51.034;3.744;2023-01-28T17:49:09;6.70;;;6.10;;
21624;SDS011;10974;51.034;3.744;2023-01-28T17:51:35;7.60;;;5.90;;
21624;SDS011;10974;51.034;3.744;2023-01-28T17:54:01;8.97;;;6.17;;
21624;SDS011;10974;51.034;3.744;2023-01-28T17:56:27;11.03;;;7.00;;
21624;SDS011;10974;51.034;3.744;2023-01-28T17:58:58;12.87;;;7.30;;
21624;SDS011;10974;51.034;3.744;2023-01-28T18:01:28;11.43;;;6.60;;
21624;SDS011;10974;51.034;3.744;2023-01-28T18:03:54;12.87;;;7.50;;
21624;SDS011;10974;51.034;3.744;2023-01-28T18:06:21;14.57;;;7.40;;
21624;SDS011;10974;51.034;3.744;2023-01-28T18:08:47;14.20;;;8.13;;
21624;SDS011;10974;51.034;3.744;2023-01-28T18:11:14;120.87;;;9.97;;
21624;SDS011;10974;51.034;3.744;2023-01-28T18:13:41;19.90;;;7.77;;
21624;SDS011;10974;51.034;3.744;2023-01-28T18:16:09;12.80;;;8.00;;
21624;SDS011;10974;51.034;3.744;2023-01-28T18:18:35;21.67;;;8.67;;
21624;SDS011;10974;51.034;3.744;2023-01-28T18:21:02;18.10;;;8.33;;
21624;SDS011;10974;51.034;3.744;2023-01-28T18:23:29;15.17;;;9.13;;
21624;SDS011;10974;51.034;3.744;2023-01-28T18:25:56;20.03;;;10.60;;
21624;SDS011;10974;51.034;3.744;2023-01-28T18:28:22;15.97;;;10.57;;
21624;SDS011;10974;51.034;3.744;2023-01-28T18:30:48;18.20;;;9.83;;
21624;SDS011;10974;51.034;3.744;2023-01-28T18:33:15;15.27;;;10.77;;
21624;SDS011;10974;51.034;3.744;2023-01-28T18:35:42;20.37;;;12.03;;
21624;SDS011;10974;51.034;3.744;2023-01-28T18:38:08;20.53;;;12.70;;
21624;SDS011;10974;51.034;3.744;2023-01-28T18:40:34;22.50;;;12.90;;
21624;SDS011;10974;51.034;3.744;2023-01-28T18:43:01;25.93;;;14.13;;
21624;SDS011;10974;51.034;3.744;2023-01-28T18:45:27;23.33;;;12.53;;
21624;SDS011;10974;51.034;3.744;2023-01-28T18:47:53;21.60;;;12.50;;
21624;SDS011;10974;51.034;3.744;2023-01-28T18:50:19;18.60;;;11.70;;
21624;SDS011;10974;51.034;3.744;2023-01-28T18:52:45;18.73;;;12.07;;
21624;SDS011;10974;51.034;3.744;2023-01-28T18:55:11;17.80;;;11.90;;
21624;SDS011;10974;51.034;3.744;2023-01-28T18:57:37;19.67;;;12.23;;
21624;SDS011;10974;51.034;3.744;2023-01-28T19:00:03;18.03;;;11.07;;
21624;SDS011;10974;51.034;3.744;2023-01-28T19:02:29;14.87;;;11.00;;
21624;SDS011;10974;51.034;3.744;2023-01-28T19:04:55;15.90;;;11.30;;
21624;SDS011;10974;51.034;3.744;2023-01-28T19:07:21;19.00;;;10.53;;
21624;SDS011;10974;51.034;3.744;2023-01-28T19:09:47;18.47;;;12.07;;
21624;SDS011;10974;51.034;3.744;2023-01-28T19:12:13;17.33;;;12.70;;
21624;SDS011;10974;51.034;3.744;2023-01-28T19:14:39;18.10;;;11.17;;
21624;SDS011;10974;51.034;3.744;2023-01-28T19:17:05;20.57;;;12.50;;
21624;SDS011;10974;51.034;3.744;2023-01-28T19:19:31;20.57;;;13.43;;
21624;SDS011;10974;51.034;3.744;2023-01-28T19:21:57;21.87;;;12.43;;
21624;SDS011;10974;51.034;3.744;2023-01-28T19:24:23;20.00;;;12.73;;
21624;SDS011;10974;51.034;3.744;2023-01-28T19:26:49;17.87;;;12.37;;
21624;SDS011;10974;51.034;3.744;2023-01-28T19:29:15;17.27;;;13.20;;
21624;SDS011;10974;51.034;3.744;2023-01-28T19:31:42;18.20;;;12.57;;
21624;SDS011;10974;51.034;3.744;2023-01-28T19:34:08;17.33;;;12.47;;
21624;SDS011;10974;51.034;3.744;2023-01-28T19:36:34;22.20;;;13.40;;
21624;SDS011;10974;51.034;3.744;2023-01-28T19:39:03;30.03;;;17.67;;
21624;SDS011;10974;51.034;3.744;2023-01-28T19:41:29;39.10;;;21.17;;
21624;SDS011;10974;51.034;3.744;2023-01-28T19:43:56;87.50;;;38.20;;
21624;SDS011;10974;51.034;3.744;2023-01-28T19:46:22;151.07;;;58.77;;
21624;SDS011;10974;51.034;3.744;2023-01-28T19:48:48;136.13;;;54.83;;
21624;SDS011;10974;51.034;3.744;2023-01-28T19:51:14;100.83;;;43.40;;
21624;SDS011;10974;51.034;3.744;2023-01-28T19:53:41;45.53;;;23.60;;
21624;SDS011;10974;51.034;3.744;2023-01-28T19:56:08;43.27;;;21.80;;
21624;SDS011;10974;51.034;3.744;2023-01-28T19:58:35;35.03;;;19.73;;
21624;SDS011;10974;51.034;3.744;2023-01-28T20:01:11;31.70;;;18.50;;
21624;SDS011;10974;51.034;3.744;2023-01-28T20:03:38;27.80;;;17.60;;
21624;SDS011;10974;51.034;3.744;2023-01-28T20:06:05;29.90;;;18.30;;
21624;SDS011;10974;51.034;3.744;2023-01-28T20:08:32;26.40;;;16.40;;
21624;SDS011;10974;51.034;3.744;2023-01-28T20:11:05;32.67;;;17.90;;
21624;SDS011;10974;51.034;3.744;2023-01-28T20:13:31;28.30;;;16.00;;
21624;SDS011;10974;51.034;3.744;2023-01-28T20:15:58;30.20;;;17.60;;
21624;SDS011;10974;51.034;3.744;2023-01-28T20:18:24;19.93;;;14.17;;
21624;SDS011;10974;51.034;3.744;2023-01-28T20:20:54;22.10;;;15.30;;
21624;SDS011;10974;51.034;3.744;2023-01-28T20:23:21;25.77;;;17.30;;
21624;SDS011;10974;51.034;3.744;2023-01-28T20:25:51;24.57;;;16.80;;
21624;SDS011;10974;51.034;3.744;2023-01-28T20:28:22;24.93;;;16.07;;
21624;SDS011;10974;51.034;3.744;2023-01-28T20:30:50;26.50;;;17.60;;
21624;SDS011;10974;51.034;3.744;2023-01-28T20:33:16;29.73;;;19.20;;
21624;SDS011;10974;51.034;3.744;2023-01-28T20:35:43;31.20;;;19.90;;
21624;SDS011;10974;51.034;3.744;2023-01-28T20:38:09;28.00;;;19.17;;
21624;SDS011;10974;51.034;3.744;2023-01-28T20:40:36;26.37;;;18.97;;
21624;SDS011;10974;51.034;3.744;2023-01-28T20:43:04;26.50;;;18.73;;